CheckWX is a tool to help pilots better visualize weather data.  It is not intended as a substitute for an official pre-flight weather briefing.

08:16:10 UTC

KHIF METAR
Hill AFB Airport
Ogden, Utah, USA
Current

18 mins ago

KHIF 220758Z 11013KT 10SM DRSN FEW043 M06/M10 A2972 RMK AO2A PK WND 07033/05 SLP091 MIDFLD WND 06019G25KT T10571105
Observed
Feb-22 @ 07:58 UTC
Wind
  • 110° at 13 KTS
Visibility
10 SM
Flight Rules
VFR
Conditions
Low drifting Snow
Cloud Levels
  • Few at 4,300' AGL
Temperature
-6°C / 21°F
Dewpoint
-11°C / 12°F
Humidity
68%
Altimeter
29.72" Hg
Pressure
1009.1 hPa
Previous

1 hour ago

KHIF 220658Z 11009G18KT 10SM DRSN BKN060 M05/M11 A2971 RMK AO2A PK WND 07035/40 SLP083 MIDFLD WND 09014G18KT T10491111 410361076
Observed
Feb-22 @ 06:58 UTC
Wind
  • 110° at 9 KTS
  • Gusting to KTS
Visibility
10 SM
Flight Rules
VFR
Conditions
Low drifting Snow
Cloud Levels
  • Broken at 6,000' AGL
Temperature
-5°C / 23°F
Dewpoint
-11°C / 12°F
Humidity
63%
Altimeter
29.71" Hg
Pressure
1008.3 hPa
Previous

2 hours ago

KHIF 220558Z 08016G25KT 10SM CLR M05/M11 A2970 RMK AO2A PK WND 06031/22 SLP084 MIDFLD WND 07015G29KT T10471113 4/005 11039 21050 53005
Observed
Feb-22 @ 05:58 UTC
Wind
  • 080° at 16 KTS
  • Gusting to KTS
Visibility
10 SM
Flight Rules
VFR
Cloud Levels
  • Clear skies
Temperature
-5°C / 23°F
Dewpoint
-11°C / 12°F
Humidity
63%
Altimeter
29.7" Hg
Pressure
1008.4 hPa
Snow Depth
5"